aviador You're here:

GMTT Decoded Metar

TANGER in MOROCCO
Report Time2017-10-24 02:00:00
UTC Time2017-10-24 02:23:15
Flight Rules vfr VFR
Wind090° at 17 kt
W.Decomp.*RWY 10: 16.8 kt HW 2.4 kt LCW
W.Rank090° ranks 2
Current wind is above 090° avg. (12.9)
Visibility9999 m
Phenomena:N/A
Clouds:Few 016 Hf
Expected CloudBase > 2,800 ft AGL from Temp-Dew spread
CeilingNone
Temp21°C (ISA +6)
Dew Point14°C (64% RH)
AAT16.1°C
QNH1020 hPa
Density Alt764 ft
Elevation69 ft
Report Wrong Elevation
Raw Report
GMTT 240200Z 09017KT 9999 FEW016 21/14 Q1020 NOSIG=

Extra information for GMTT:More info

Metar Taf Metar & Taf Last 4 Metars F.Rules Stats Wind Profile Meteogram Temp Stats Airport Information Weather charts Add Link Nearby VenuesMetar ALERT Operation Metar Decoded Social comments